Harvey, Arkansas
Current Conditions -  °F | °C
As of 1:53 PM on Tuesday 25 Nov 2014 (Local Time) from KMWT Reporting Station
Clear Clear  
Wind Chill: 55°   Ceiling: Unl
Heat Index: 55°   Visibility: 10mi
Dew Point: 21°   Wind: 5mph
Humidity: 27%   Direction: NA
Pressure: 30.14"   Gusts: NA
Location:  34.85°N, 93.79°W
Report Text: KMWT 251953Z AUTO VRB04KT 10SM CLR 13/M06 A3014 RMK AO2 SLP213 T01281061
Loading
Personal Weather Stations






























Interactive Weather Map New forecast layout! Learn more

10-Day Weather Forecast

Advertisements
Track Severe Weather on mobile